Time;durP1;ratioP1;P1;durP2;ratioP2;P2;SDS_P1;SDS_P2;PMS_P1;PMS_P2;Temp;Humidity;BMP_temperature;BMP_pressure;BME280_temperature;BME280_humidity;BME280_pressure;Samples;Min_cycle;Max_cycle;Signal;HPM_P1;HPM_P2
2022/09/05 00:01:07;;;;;;;;;;;;;;;;;;4930490;28;19926;-60
2022/09/05 00:03:33;;;;;;;;;;;;;;;;;;4931841;28;20789;-59
2022/09/05 00:05:58;;;;;;;;;;;;;;;;;;4929839;28;20072;-60
2022/09/05 00:08:24;;;;;;;;;;;;;;;;;;4945287;28;19923;-60
2022/09/05 00:10:49;;;;;;;;;;;;;;;;;;4929457;28;19929;-59
2022/09/05 00:13:17;;;;;;;;;;;;;;;;;;4929507;28;19922;-61
2022/09/05 00:15:42;;;;;;;;;;;;;;;;;;4930262;28;19993;-60
2022/09/05 00:18:08;;;;;;;;;;;;;;;;;;4931523;28;21881;-60
2022/09/05 00:20:33;;;;;;;;;;;;;;;;;;4928470;28;19922;-62
2022/09/05 00:22:58;;;;;;;;;;;;;;;;;;4930025;28;20053;-60
2022/09/05 00:25:23;;;;;;;;;;;;;;;;;;4930177;28;19932;-61
2022/09/05 00:27:51;;;;;;;;;;;;;;;;;;4930670;28;19918;-61
2022/09/05 00:30:16;;;;;;;;;;;;;;;;;;4929193;28;19929;-60
2022/09/05 00:32:44;;;;;;;;;;;;;;;;;;4930631;28;19922;-60
2022/09/05 00:35:12;;;;;;;;;;;;;;;;;;4930567;28;19926;-60
2022/09/05 00:37:37;;;;;;;;;;;;;;;;;;4930816;28;19930;-60
2022/09/05 00:40:02;;;;;;;;;;;;;;;;;;4944354;28;19953;-59
2022/09/05 00:42:30;;;;;;;;;;;;;;;;;;4945317;28;19961;-60
2022/09/05 00:44:57;;;;;;;;;;;;;;;;;;4930226;28;19922;-61
2022/09/05 00:47:26;;;;;;;;;;;;;;;;;;4928925;28;20537;-59
2022/09/05 00:49:58;;;;;;;;;;;;;;;;;;4933827;28;19954;-61
2022/09/05 00:52:26;;;;;;;;;;;;;;;;;;4927695;28;19930;-59
2022/09/05 00:54:51;;;;;;;;;;;;;;;;;;4928401;28;19926;-61
2022/09/05 00:57:19;;;;;;;;;;;;;;;;;;4947218;28;20388;-59
2022/09/05 00:59:45;;;;;;;;;;;;;;;;;;4949448;28;19918;-58
2022/09/05 01:02:12;;;;;;;;;;;;;;;;;;4950152;28;19942;-62
2022/09/05 01:04:40;;;;;;;;;;;;;;;;;;4933129;28;19986;-60
2022/09/05 01:07:05;;;;;;;;;;;;;;;;;;4949957;28;20402;-59
2022/09/05 01:09:31;;;;;;;;;;;;;;;;;;4934381;28;19926;-60
2022/09/05 01:11:59;;;;;;;;;;;;;;;;;;4934600;28;20433;-60
2022/09/05 01:14:24;;;;;;;;;;;;;;;;;;4949330;28;20294;-61
2022/09/05 01:16:53;;;;;;;;;;;;;;;;;;4948845;28;19922;-61
2022/09/05 01:19:18;;;;;;;;;;;;;;;;;;4933055;28;19941;-61
2022/09/05 01:21:43;;;;;;;;;;;;;;;;;;4931287;28;20386;-59
2022/09/05 01:24:08;;;;;;;;;;;;;;;;;;4948550;28;19924;-60
2022/09/05 01:26:34;;;;;;;;;;;;;;;;;;4934161;28;19923;-60
2022/09/05 01:29:01;;;;;;;;;;;;;;;;;;4934628;28;20823;-59
2022/09/05 01:31:29;;;;;;;;;;;;;;;;;;4932481;28;19930;-61
2022/09/05 01:33:54;;;;;;;;;;;;;;;;;;4929844;28;19926;-60
2022/09/05 01:36:20;;;;;;;;;;;;;;;;;;4948037;28;19926;-60
2022/09/05 01:38:45;;;;;;;;;;;;;;;;;;4934867;28;20014;-60
2022/09/05 01:41:10;;;;;;;;;;;;;;;;;;4933546;28;20910;-59
2022/09/05 01:43:36;;;;;;;;;;;;;;;;;;4933415;28;19989;-59
2022/09/05 01:46:04;;;;;;;;;;;;;;;;;;4932209;28;19922;-60
2022/09/05 01:48:29;;;;;;;;;;;;;;;;;;4932568;28;19933;-60
2022/09/05 01:50:55;;;;;;;;;;;;;;;;;;4947277;28;19923;-60
2022/09/05 01:53:24;;;;;;;;;;;;;;;;;;4931637;28;19926;-60
2022/09/05 01:55:49;;;;;;;;;;;;;;;;;;4932467;28;19918;-60
2022/09/05 01:58:15;;;;;;;;;;;;;;;;;;4933955;28;19923;-60
2022/09/05 02:00:40;;;;;;;;;;;;;;;;;;4932274;28;19950;-59
2022/09/05 02:03:08;;;;;;;;;;;;;;;;;;4933210;28;20387;-59
2022/09/05 02:05:36;;;;;;;;;;;;;;;;;;4931297;28;19933;-59
2022/09/05 02:08:07;;;;;;;;;;;;;;;;;;4931947;28;20289;-59
2022/09/05 02:10:33;;;;;;;;;;;;;;;;;;4947531;28;20635;-60
2022/09/05 02:13:00;;;;;;;;;;;;;;;;;;4948533;28;19935;-60
2022/09/05 02:15:25;;;;;;;;;;;;;;;;;;4931129;28;19919;-60
2022/09/05 02:17:53;;;;;;;;;;;;;;;;;;4947345;28;19919;-60
2022/09/05 02:20:18;;;;;;;;;;;;;;;;;;4946853;28;19922;-59
2022/09/05 02:22:44;;;;;;;;;;;;;;;;;;4927066;28;19933;-60
2022/09/05 02:25:11;;;;;;;;;;;;;;;;;;4931390;28;20829;-59
2022/09/05 02:27:45;;;;;;;;;;;;;;;;;;4930421;28;19923;-59
2022/09/05 02:30:15;;;;;;;;;;;;;;;;;;4929189;28;19927;-59
2022/09/05 02:32:41;;;;;;;;;;;;;;;;;;4930218;28;19929;-60
2022/09/05 02:35:06;;;;;;;;;;;;;;;;;;4928259;28;19922;-60
2022/09/05 02:37:31;;;;;;;;;;;;;;;;;;4910939;28;19929;-59
2022/09/05 02:39:59;;;;;;;;;;;;;;;;;;4930997;28;19922;-59
2022/09/05 02:42:24;;;;;;;;;;;;;;;;;;4930779;28;20401;-60
2022/09/05 02:44:52;;;;;;;;;;;;;;;;;;4929927;28;19922;-59
2022/09/05 02:47:21;;;;;;;;;;;;;;;;;;4930589;28;19926;-60
2022/09/05 02:49:46;;;;;;;;;;;;;;;;;;4929719;28;19961;-59
2022/09/05 02:52:11;;;;;;;;;;;;;;;;;;4927689;28;20001;-58
2022/09/05 02:54:37;;;;;;;;;;;;;;;;;;4929890;28;19930;-59
2022/09/05 02:57:04;;;;;;;;;;;;;;;;;;4944900;28;19922;-59
2022/09/05 02:59:29;;;;;;;;;;;;;;;;;;4928819;28;19946;-60
2022/09/05 03:02:00;;;;;;;;;;;;;;;;;;4931040;28;19941;-59
2022/09/05 03:04:27;;;;;;;;;;;;;;;;;;4930049;28;19918;-59
2022/09/05 03:06:53;;;;;;;;;;;;;;;;;;4929521;28;20349;-60
2022/09/05 03:09:18;;;;;;;;;;;;;;;;;;4929054;28;21016;-60
2022/09/05 03:11:46;;;;;;;;;;;;;;;;;;4929581;28;19953;-59
2022/09/05 03:14:14;;;;;;;;;;;;;;;;;;4930317;28;22000;-60
2022/09/05 03:19:33;;;;;;;;;;;;;;;;;;4929745;28;20022;-59
2022/09/05 03:22:03;;;;;;;;;;;;;;;;;;4931274;28;19928;-58
2022/09/05 03:24:31;;;;;;;;;;;;;;;;;;4929756;28;19929;-60
2022/09/05 03:26:56;;;;;;;;;;;;;;;;;;4945406;28;19965;-61
2022/09/05 03:29:24;;;;;;;;;;;;;;;;;;4929628;28;19922;-59
2022/09/05 03:31:49;;;;;;;;;;;;;;;;;;4930157;28;19925;-58
2022/09/05 03:34:14;;;;;;;;;;;;;;;;;;4930901;28;19934;-59
2022/09/05 03:36:42;;;;;;;;;;;;;;;;;;4929283;28;19933;-59
2022/09/05 03:39:09;;;;;;;;;;;;;;;;;;4929561;28;19923;-60
2022/09/05 03:41:37;;;;;;;;;;;;;;;;;;4927461;28;20886;-58
2022/09/05 03:44:05;;;;;;;;;;;;;;;;;;4930562;28;19926;-59
2022/09/05 03:46:32;;;;;;;;;;;;;;;;;;4868496;28;1797265;-59
2022/09/05 03:48:58;;;;;;;;;;;;;;;;;;4929474;28;19929;-59
2022/09/05 03:51:23;;;;;;;;;;;;;;;;;;4913918;29;20697;-59
2022/09/05 03:53:48;;;;;;;;;;;;;;;;;;4947231;28;20131;-60
2022/09/05 03:56:13;;;;;;;;;;;;;;;;;;4929681;28;20001;-60
2022/09/05 03:58:39;;;;;;;;;;;;;;;;;;4930461;28;20481;-59
2022/09/05 04:01:04;;;;;;;;;;;;;;;;;;4930366;28;19969;-59
2022/09/05 04:03:29;;;;;;;;;;;;;;;;;;4931100;28;19946;-59
2022/09/05 04:05:59;;;;;;;;;;;;;;;;;;4930961;28;20604;-59
2022/09/05 04:08:27;;;;;;;;;;;;;;;;;;4930173;28;19919;-59
2022/09/05 04:10:52;;;;;;;;;;;;;;;;;;4926580;28;19937;-60
2022/09/05 04:13:17;;;;;;;;;;;;;;;;;;4931084;28;20631;-62
2022/09/05 04:15:45;;;;;;;;;;;;;;;;;;4931322;28;19914;-59
2022/09/05 04:18:13;;;;;;;;;;;;;;;;;;4929916;28;19938;-59
2022/09/05 04:20:39;;;;;;;;;;;;;;;;;;4928908;28;19927;-60
2022/09/05 04:23:05;;;;;;;;;;;;;;;;;;4931135;28;20485;-60
2022/09/05 04:25:32;;;;;;;;;;;;;;;;;;4928417;28;19923;-59
2022/09/05 04:28:00;;;;;;;;;;;;;;;;;;4927619;28;19966;-59
2022/09/05 04:30:26;;;;;;;;;;;;;;;;;;4929587;28;19926;-60
2022/09/05 04:32:51;;;;;;;;;;;;;;;;;;4945123;28;20426;-58
2022/09/05 04:35:17;;;;;;;;;;;;;;;;;;4930584;28;19930;-60
2022/09/05 04:37:47;;;;;;;;;;;;;;;;;;4943439;28;20017;-58
2022/09/05 04:40:14;;;;;;;;;;;;;;;;;;4927892;28;19923;-60
2022/09/05 04:42:40;;;;;;;;;;;;;;;;;;4928670;28;19933;-60
2022/09/05 04:45:05;;;;;;;;;;;;;;;;;;4927922;28;20026;-60
2022/09/05 04:47:35;;;;;;;;;;;;;;;;;;4930392;28;19931;-61
2022/09/05 04:50:00;;;;;;;;;;;;;;;;;;4945471;28;19922;-59
2022/09/05 04:52:25;;;;;;;;;;;;;;;;;;4929604;28;19942;-59
2022/09/05 04:54:51;;;;;;;;;;;;;;;;;;4931318;28;19922;-59
2022/09/05 04:57:16;;;;;;;;;;;;;;;;;;4929699;28;19928;-60
2022/09/05 04:59:43;;;;;;;;;;;;;;;;;;4927699;28;19918;-60
2022/09/05 05:02:12;;;;;;;;;;;;;;;;;;4943039;28;19941;-60
2022/09/05 05:04:37;;;;;;;;;;;;;;;;;;4927983;28;19919;-60
2022/09/05 05:07:02;;;;;;;;;;;;;;;;;;4943345;28;20507;-59
2022/09/05 05:09:27;;;;;;;;;;;;;;;;;;4944887;28;19919;-58
2022/09/05 05:11:53;;;;;;;;;;;;;;;;;;4928869;28;19923;-60
2022/09/05 05:14:18;;;;;;;;;;;;;;;;;;4928764;28;20389;-58
2022/09/05 05:16:45;;;;;;;;;;;;;;;;;;4928928;28;19952;-59
2022/09/05 05:19:10;;;;;;;;;;;;;;;;;;4928517;28;19918;-59
2022/09/05 05:21:38;;;;;;;;;;;;;;;;;;4929295;28;19922;-59
2022/09/05 05:24:05;;;;;;;;;;;;;;;;;;4931011;28;19922;-59
2022/09/05 05:26:30;;;;;;;;;;;;;;;;;;4944761;28;19945;-59
2022/09/05 05:28:56;;;;;;;;;;;;;;;;;;4929479;28;19992;-60
2022/09/05 05:31:23;;;;;;;;;;;;;;;;;;4928204;28;20472;-59
2022/09/05 05:33:51;;;;;;;;;;;;;;;;;;4929862;28;20522;-60
2022/09/05 05:36:18;;;;;;;;;;;;;;;;;;4926066;28;20561;-59
2022/09/05 05:38:47;;;;;;;;;;;;;;;;;;4930987;28;20009;-60
2022/09/05 05:41:12;;;;;;;;;;;;;;;;;;4932325;28;19997;-60
2022/09/05 05:43:40;;;;;;;;;;;;;;;;;;4932475;28;19958;-61
2022/09/05 05:46:07;;;;;;;;;;;;;;;;;;4930486;28;20074;-58
2022/09/05 05:48:33;;;;;;;;;;;;;;;;;;4933456;28;20612;-60
2022/09/05 05:51:01;;;;;;;;;;;;;;;;;;4932405;28;20016;-60
2022/09/05 05:53:27;;;;;;;;;;;;;;;;;;4932940;28;19993;-61
2022/09/05 05:55:53;;;;;;;;;;;;;;;;;;4933471;28;20421;-61
2022/09/05 05:58:18;;;;;;;;;;;;;;;;;;4927624;28;20362;-61
2022/09/05 06:00:44;;;;;;;;;;;;;;;;;;4947559;28;19934;-60
2022/09/05 06:03:10;;;;;;;;;;;;;;;;;;4933196;28;19982;-61
2022/09/05 06:05:35;;;;;;;;;;;;;;;;;;4931305;28;19918;-61
2022/09/05 06:08:01;;;;;;;;;;;;;;;;;;4932090;28;19933;-62
2022/09/05 06:10:27;;;;;;;;;;;;;;;;;;4929745;28;20013;-60
2022/09/05 06:13:01;;;;;;;;;;;;;;;;;;4947308;28;19918;-61
2022/09/05 06:15:26;;;;;;;;;;;;;;;;;;4932023;28;19926;-60
2022/09/05 06:17:52;;;;;;;;;;;;;;;;;;4932282;28;19925;-61
2022/09/05 06:20:19;;;;;;;;;;;;;;;;;;4932605;28;19950;-60
2022/09/05 06:22:44;;;;;;;;;;;;;;;;;;4932628;28;20017;-60
2022/09/05 06:25:14;;;;;;;;;;;;;;;;;;4929852;28;20487;-60
2022/09/05 06:27:40;;;;;;;;;;;;;;;;;;4931353;28;20378;-61
2022/09/05 06:30:07;;;;;;;;;;;;;;;;;;4930638;28;19998;-61
2022/09/05 06:32:33;;;;;;;;;;;;;;;;;;4932317;28;19926;-61
2022/09/05 06:35:01;;;;;;;;;;;;;;;;;;4932185;28;20004;-62
2022/09/05 06:37:26;;;;;;;;;;;;;;;;;;4932581;28;20009;-61
2022/09/05 06:39:51;;;;;;;;;;;;;;;;;;4947846;28;19919;-61
2022/09/05 06:42:17;;;;;;;;;;;;;;;;;;4931166;28;20317;-61
2022/09/05 06:44:42;;;;;;;;;;;;;;;;;;4933080;28;19929;-61
2022/09/05 06:47:10;;;;;;;;;;;;;;;;;;4930714;28;19948;-61
2022/09/05 06:49:37;;;;;;;;;;;;;;;;;;4930532;28;20024;-61
2022/09/05 06:52:03;;;;;;;;;;;;;;;;;;4945279;28;19934;-62
2022/09/05 06:54:31;;;;;;;;;;;;;;;;;;4931357;28;19924;-61
2022/09/05 06:56:58;;;;;;;;;;;;;;;;;;4930042;28;20036;-62
2022/09/05 06:59:24;;;;;;;;;;;;;;;;;;4930551;28;19922;-62
2022/09/05 07:01:49;;;;;;;;;;;;;;;;;;4930139;28;20009;-63
2022/09/05 07:04:15;;;;;;;;;;;;;;;;;;4930925;28;19926;-61
2022/09/05 07:06:40;;;;;;;;;;;;;;;;;;4945042;28;20009;-62
2022/09/05 07:09:06;;;;;;;;;;;;;;;;;;4931021;28;19931;-61
2022/09/05 07:11:33;;;;;;;;;;;;;;;;;;4944900;28;19922;-61
2022/09/05 07:13:59;;;;;;;;;;;;;;;;;;4931924;28;20293;-62
2022/09/05 07:16:27;;;;;;;;;;;;;;;;;;4930171;28;20038;-62
2022/09/05 07:18:53;;;;;;;;;;;;;;;;;;4931147;28;20121;-63
2022/09/05 07:21:19;;;;;;;;;;;;;;;;;;4932158;28;19926;-61
2022/09/05 07:23:44;;;;;;;;;;;;;;;;;;4947199;28;20945;-62
2022/09/05 07:26:12;;;;;;;;;;;;;;;;;;4929295;28;19926;-62
2022/09/05 07:28:37;;;;;;;;;;;;;;;;;;4929714;28;19923;-62
2022/09/05 07:31:05;;;;;;;;;;;;;;;;;;4930902;28;19919;-62
2022/09/05 07:33:30;;;;;;;;;;;;;;;;;;4946620;28;20013;-62
2022/09/05 07:35:58;;;;;;;;;;;;;;;;;;4930432;28;19973;-62
2022/09/05 07:38:26;;;;;;;;;;;;;;;;;;4930330;28;19945;-62
2022/09/05 07:40:51;;;;;;;;;;;;;;;;;;4944672;28;21926;-62
2022/09/05 07:43:21;;;;;;;;;;;;;;;;;;4931949;28;20728;-60
2022/09/05 07:45:46;;;;;;;;;;;;;;;;;;4929464;28;19930;-62
2022/09/05 07:48:15;;;;;;;;;;;;;;;;;;4945539;28;19927;-62
2022/09/05 07:50:40;;;;;;;;;;;;;;;;;;4945617;28;19969;-62
2022/09/05 07:53:05;;;;;;;;;;;;;;;;;;4931652;28;20032;-63
2022/09/05 07:55:33;;;;;;;;;;;;;;;;;;4931188;28;20025;-61
2022/09/05 07:57:59;;;;;;;;;;;;;;;;;;4946178;28;19926;-62
2022/09/05 08:00:24;;;;;;;;;;;;;;;;;;4930190;28;19919;-63
2022/09/05 08:02:50;;;;;;;;;;;;;;;;;;4930346;28;19930;-62
2022/09/05 08:05:15;;;;;;;;;;;;;;;;;;4928780;28;19926;-61
2022/09/05 08:07:43;;;;;;;;;;;;;;;;;;4946609;28;20009;-62
2022/09/05 08:10:11;;;;;;;;;;;;;;;;;;4929253;28;20423;-62
2022/09/05 08:12:39;;;;;;;;;;;;;;;;;;4931379;28;20598;-62
2022/09/05 08:15:05;;;;;;;;;;;;;;;;;;4929727;28;20694;-62
2022/09/05 08:17:33;;;;;;;;;;;;;;;;;;4929508;28;20346;-62
2022/09/05 08:19:58;;;;;;;;;;;;;;;;;;4929442;28;19970;-61
2022/09/05 08:22:26;;;;;;;;;;;;;;;;;;4930633;28;20414;-62
2022/09/05 08:24:51;;;;;;;;;;;;;;;;;;4944637;28;20366;-62
2022/09/05 08:27:17;;;;;;;;;;;;;;;;;;4947282;28;20013;-62
2022/09/05 08:29:45;;;;;;;;;;;;;;;;;;4930419;28;19918;-62
2022/09/05 08:32:11;;;;;;;;;;;;;;;;;;4930632;28;20050;-62
2022/09/05 08:34:38;;;;;;;;;;;;;;;;;;4931328;28;19922;-63
2022/09/05 08:37:04;;;;;;;;;;;;;;;;;;4928508;28;19922;-62
2022/09/05 08:39:32;;;;;;;;;;;;;;;;;;4928485;28;20453;-61
2022/09/05 08:41:59;;;;;;;;;;;;;;;;;;4928894;28;19985;-62
2022/09/05 08:44:27;;;;;;;;;;;;;;;;;;4928022;28;20001;-62
2022/09/05 08:46:55;;;;;;;;;;;;;;;;;;4929124;28;20339;-63
2022/09/05 08:49:20;;;;;;;;;;;;;;;;;;4944959;28;19918;-62
2022/09/05 08:51:48;;;;;;;;;;;;;;;;;;4929891;28;19922;-63
2022/09/05 08:54:14;;;;;;;;;;;;;;;;;;4944399;28;20393;-62
2022/09/05 08:56:42;;;;;;;;;;;;;;;;;;4930107;28;19937;-63
2022/09/05 08:59:07;;;;;;;;;;;;;;;;;;4928112;28;19922;-63
2022/09/05 09:01:32;;;;;;;;;;;;;;;;;;4929868;28;19925;-64
2022/09/05 09:03:58;;;;;;;;;;;;;;;;;;4944097;28;19926;-62
2022/09/05 09:06:23;;;;;;;;;;;;;;;;;;4929910;28;21381;-61
2022/09/05 09:08:51;;;;;;;;;;;;;;;;;;4931191;28;19922;-63
2022/09/05 09:11:16;;;;;;;;;;;;;;;;;;4929971;28;20017;-62
2022/09/05 09:13:50;;;;;;;;;;;;;;;;;;4928239;28;19918;-62
2022/09/05 09:16:18;;;;;;;;;;;;;;;;;;4931930;28;21411;-63
2022/09/05 09:18:44;;;;;;;;;;;;;;;;;;4949626;28;20105;-63
2022/09/05 09:21:09;;;;;;;;;;;;;;;;;;4933438;28;20580;-62
2022/09/05 09:23:35;;;;;;;;;;;;;;;;;;4934065;28;19933;-63
2022/09/05 09:26:00;;;;;;;;;;;;;;;;;;4948963;28;19973;-62
2022/09/05 09:28:27;;;;;;;;;;;;;;;;;;4935263;28;19914;-62
2022/09/05 09:30:54;;;;;;;;;;;;;;;;;;4932653;28;19922;-62
2022/09/05 09:33:20;;;;;;;;;;;;;;;;;;4949450;28;20805;-62
2022/09/05 09:35:45;;;;;;;;;;;;;;;;;;4946740;28;19925;-63
2022/09/05 09:38:12;;;;;;;;;;;;;;;;;;4933132;28;20037;-63
2022/09/05 09:40:37;;;;;;;;;;;;;;;;;;4947089;28;19929;-63
2022/09/05 09:43:03;;;;;;;;;;;;;;;;;;4932137;28;19919;-63
2022/09/05 09:45:28;;;;;;;;;;;;;;;;;;4930875;28;19929;-62
2022/09/05 09:47:54;;;;;;;;;;;;;;;;;;4948968;28;20763;-61
2022/09/05 09:50:20;;;;;;;;;;;;;;;;;;4933585;28;19922;-63
2022/09/05 09:52:45;;;;;;;;;;;;;;;;;;4927657;28;19929;-63
2022/09/05 09:55:11;;;;;;;;;;;;;;;;;;4932864;28;20013;-63
2022/09/05 09:57:36;;;;;;;;;;;;;;;;;;4932215;28;20980;-63
2022/09/05 10:00:01;;;;;;;;;;;;;;;;;;4932471;28;19930;-64
2022/09/05 10:02:27;;;;;;;;;;;;;;;;;;4932733;28;19933;-64
2022/09/05 10:04:53;;;;;;;;;;;;;;;;;;4947709;28;19933;-62
2022/09/05 10:07:21;;;;;;;;;;;;;;;;;;4929856;28;19996;-62
2022/09/05 10:09:49;;;;;;;;;;;;;;;;;;4947813;28;19926;-64
2022/09/05 10:12:14;;;;;;;;;;;;;;;;;;4931184;28;19926;-62
2022/09/05 10:14:42;;;;;;;;;;;;;;;;;;4932873;28;19938;-61
2022/09/05 10:17:08;;;;;;;;;;;;;;;;;;4947659;28;20091;-63
2022/09/05 10:19:36;;;;;;;;;;;;;;;;;;4931738;28;19922;-63
2022/09/05 10:22:06;;;;;;;;;;;;;;;;;;4946596;28;21713;-62
2022/09/05 10:24:32;;;;;;;;;;;;;;;;;;4932636;28;19925;-63
2022/09/05 10:26:58;;;;;;;;;;;;;;;;;;4933541;28;21060;-63
2022/09/05 10:29:26;;;;;;;;;;;;;;;;;;4930831;28;19930;-63
2022/09/05 10:31:55;;;;;;;;;;;;;;;;;;4932341;28;19923;-63
2022/09/05 10:34:22;;;;;;;;;;;;;;;;;;4930024;28;19948;-63
2022/09/05 10:36:48;;;;;;;;;;;;;;;;;;4931832;28;19923;-62
2022/09/05 10:39:13;;;;;;;;;;;;;;;;;;4947134;28;19930;-63
2022/09/05 10:41:38;;;;;;;;;;;;;;;;;;4931304;28;20327;-63
2022/09/05 10:44:04;;;;;;;;;;;;;;;;;;4930526;28;20272;-63
2022/09/05 10:46:31;;;;;;;;;;;;;;;;;;4933191;28;19930;-62
2022/09/05 10:48:59;;;;;;;;;;;;;;;;;;4945624;28;19975;-62
2022/09/05 10:51:28;;;;;;;;;;;;;;;;;;4932103;28;20444;-62
2022/09/05 10:53:54;;;;;;;;;;;;;;;;;;4946580;28;19972;-63
2022/09/05 10:56:19;;;;;;;;;;;;;;;;;;4944789;28;20364;-63
2022/09/05 10:58:44;;;;;;;;;;;;;;;;;;4947568;28;19919;-61
2022/09/05 11:01:10;;;;;;;;;;;;;;;;;;4929842;28;21889;-62
2022/09/05 11:03:36;;;;;;;;;;;;;;;;;;4929355;28;19938;-64
2022/09/05 11:06:01;;;;;;;;;;;;;;;;;;4930073;28;19922;-60
2022/09/05 11:08:27;;;;;;;;;;;;;;;;;;4929942;28;19922;-63
2022/09/05 11:10:52;;;;;;;;;;;;;;;;;;4929375;28;21062;-63
2022/09/05 11:13:18;;;;;;;;;;;;;;;;;;4947181;28;20004;-63
2022/09/05 11:15:46;;;;;;;;;;;;;;;;;;4928756;28;21971;-63
2022/09/05 11:18:12;;;;;;;;;;;;;;;;;;4930537;28;19941;-63
2022/09/05 11:20:42;;;;;;;;;;;;;;;;;;4929342;28;19923;-63
2022/09/05 11:23:08;;;;;;;;;;;;;;;;;;4946897;28;20028;-63
2022/09/05 11:25:36;;;;;;;;;;;;;;;;;;4930832;28;20301;-63
2022/09/05 11:28:03;;;;;;;;;;;;;;;;;;4909410;28;20009;-64
2022/09/05 11:30:36;;;;;;;;;;;;;;;;;;4930464;28;21985;-65
2022/09/05 11:33:02;;;;;;;;;;;;;;;;;;4927126;28;19926;-63
2022/09/05 11:35:31;;;;;;;;;;;;;;;;;;4945666;28;19981;-63
2022/09/05 11:37:57;;;;;;;;;;;;;;;;;;4930829;28;19926;-62
2022/09/05 11:43:17;;;;;;;;;;;;;;;;;;4946476;28;19918;-63
2022/09/05 11:45:42;;;;;;;;;;;;;;;;;;4928652;28;19923;-63
2022/09/05 11:48:07;;;;;;;;;;;;;;;;;;4945467;28;20649;-63
2022/09/05 11:50:33;;;;;;;;;;;;;;;;;;4928588;28;20418;-65
2022/09/05 11:52:58;;;;;;;;;;;;;;;;;;4929865;28;19926;-63
2022/09/05 11:55:24;;;;;;;;;;;;;;;;;;4930258;28;19933;-64
2022/09/05 11:57:49;;;;;;;;;;;;;;;;;;4929811;28;19918;-61
2022/09/05 12:00:18;;;;;;;;;;;;;;;;;;4931085;28;19956;-63
2022/09/05 12:02:43;;;;;;;;;;;;;;;;;;4931048;28;19924;-63
2022/09/05 12:05:09;;;;;;;;;;;;;;;;;;4928697;28;19922;-63
2022/09/05 12:07:35;;;;;;;;;;;;;;;;;;4930657;28;19969;-63
2022/09/05 12:10:01;;;;;;;;;;;;;;;;;;4931482;28;19926;-63
2022/09/05 12:12:26;;;;;;;;;;;;;;;;;;4945070;28;19933;-63
2022/09/05 12:14:54;;;;;;;;;;;;;;;;;;4930185;28;20490;-63
2022/09/05 12:17:21;;;;;;;;;;;;;;;;;;4929994;28;19934;-63
2022/09/05 12:19:48;;;;;;;;;;;;;;;;;;4931910;28;19918;-62
2022/09/05 12:22:13;;;;;;;;;;;;;;;;;;4945590;28;19930;-62
2022/09/05 12:24:41;;;;;;;;;;;;;;;;;;4930678;28;19933;-62
2022/09/05 12:27:10;;;;;;;;;;;;;;;;;;4930742;28;19974;-62
2022/09/05 12:29:35;;;;;;;;;;;;;;;;;;4929288;28;20731;-63
2022/09/05 12:32:00;;;;;;;;;;;;;;;;;;4913773;29;19922;-62
2022/09/05 12:34:26;;;;;;;;;;;;;;;;;;4928608;28;20406;-63
2022/09/05 12:36:51;;;;;;;;;;;;;;;;;;4925429;28;19919;-63
2022/09/05 12:39:16;;;;;;;;;;;;;;;;;;4931110;28;19973;-63
2022/09/05 12:41:44;;;;;;;;;;;;;;;;;;4930199;28;19928;-62
2022/09/05 12:44:10;;;;;;;;;;;;;;;;;;4930180;28;19965;-62
2022/09/05 12:46:38;;;;;;;;;;;;;;;;;;4945513;28;19948;-63
2022/09/05 12:49:03;;;;;;;;;;;;;;;;;;4928600;28;20417;-62
2022/09/05 12:51:29;;;;;;;;;;;;;;;;;;4933567;28;20857;-63
2022/09/05 12:53:54;;;;;;;;;;;;;;;;;;4950090;28;20394;-63
2022/09/05 12:56:19;;;;;;;;;;;;;;;;;;4933956;28;19948;-59
2022/09/05 12:58:45;;;;;;;;;;;;;;;;;;4934943;28;19919;-60
2022/09/05 13:01:10;;;;;;;;;;;;;;;;;;4932857;28;19919;-62
2022/09/05 13:03:36;;;;;;;;;;;;;;;;;;4935053;28;19927;-64
2022/09/05 13:06:02;;;;;;;;;;;;;;;;;;4948434;28;19918;-63
2022/09/05 13:08:27;;;;;;;;;;;;;;;;;;4947604;28;19973;-62
2022/09/05 13:10:55;;;;;;;;;;;;;;;;;;4934091;28;19985;-62
2022/09/05 13:13:22;;;;;;;;;;;;;;;;;;4948913;28;20647;-63
2022/09/05 13:15:49;;;;;;;;;;;;;;;;;;4948582;28;19922;-62
2022/09/05 13:18:15;;;;;;;;;;;;;;;;;;4932022;28;19930;-62
2022/09/05 13:20:50;;;;;;;;;;;;;;;;;;4949663;28;19918;-59
2022/09/05 13:23:15;;;;;;;;;;;;;;;;;;4932924;28;19927;-62
2022/09/05 13:25:43;;;;;;;;;;;;;;;;;;4932919;28;20105;-61
2022/09/05 13:28:09;;;;;;;;;;;;;;;;;;4932589;28;19923;-61
2022/09/05 13:30:37;;;;;;;;;;;;;;;;;;4931605;28;19923;-62
2022/09/05 13:33:02;;;;;;;;;;;;;;;;;;4949430;28;19922;-63
2022/09/05 13:35:31;;;;;;;;;;;;;;;;;;4933173;28;19980;-62
2022/09/05 13:37:57;;;;;;;;;;;;;;;;;;4933181;28;19925;-63
2022/09/05 13:40:25;;;;;;;;;;;;;;;;;;4934027;28;19923;-62
2022/09/05 13:42:50;;;;;;;;;;;;;;;;;;4930143;28;19922;-64
2022/09/05 13:45:18;;;;;;;;;;;;;;;;;;4931165;28;19919;-60
2022/09/05 13:47:43;;;;;;;;;;;;;;;;;;4930985;28;19934;-61
2022/09/05 13:50:12;;;;;;;;;;;;;;;;;;4948317;28;19922;-63
2022/09/05 13:52:37;;;;;;;;;;;;;;;;;;4948148;28;19927;-62
2022/09/05 13:55:03;;;;;;;;;;;;;;;;;;4929601;28;19993;-62
2022/09/05 13:57:31;;;;;;;;;;;;;;;;;;4933899;28;20037;-63
2022/09/05 13:59:56;;;;;;;;;;;;;;;;;;4931448;28;20405;-61
2022/09/05 14:02:25;;;;;;;;;;;;;;;;;;4933628;28;19926;-61
2022/09/05 14:04:51;;;;;;;;;;;;;;;;;;4931737;28;21013;-64
2022/09/05 14:07:18;;;;;;;;;;;;;;;;;;4930265;28;19946;-62
2022/09/05 14:09:45;;;;;;;;;;;;;;;;;;4947638;28;20547;-62
2022/09/05 14:12:10;;;;;;;;;;;;;;;;;;4932787;28;21852;-62
2022/09/05 14:14:38;;;;;;;;;;;;;;;;;;4931645;28;19922;-64
2022/09/05 14:17:03;;;;;;;;;;;;;;;;;;4933292;28;19925;-62
2022/09/05 14:22:14;;;;;;;;;;;;;;;;;;4931774;28;20001;-62
2022/09/05 14:24:39;;;;;;;;;;;;;;;;;;4932407;28;19930;-62
2022/09/05 14:27:07;;;;;;;;;;;;;;;;;;4932036;28;19923;-63
2022/09/05 14:29:33;;;;;;;;;;;;;;;;;;4946474;28;21006;-63
2022/09/05 14:32:00;;;;;;;;;;;;;;;;;;4931495;28;19929;-62
2022/09/05 14:34:26;;;;;;;;;;;;;;;;;;4931600;28;19926;-62
2022/09/05 14:36:51;;;;;;;;;;;;;;;;;;4947004;28;19974;-60
2022/09/05 14:39:17;;;;;;;;;;;;;;;;;;4933133;28;20034;-62
2022/09/05 14:41:47;;;;;;;;;;;;;;;;;;4932320;28;20006;-61
2022/09/05 14:44:15;;;;;;;;;;;;;;;;;;4947605;28;20377;-58
2022/09/05 14:46:43;;;;;;;;;;;;;;;;;;4931005;28;19918;-61
2022/09/05 14:49:11;;;;;;;;;;;;;;;;;;4932358;28;19934;-62
2022/09/05 14:51:36;;;;;;;;;;;;;;;;;;4947088;28;19922;-62
2022/09/05 14:54:01;;;;;;;;;;;;;;;;;;4933320;28;19922;-62
2022/09/05 14:56:27;;;;;;;;;;;;;;;;;;4932317;28;19923;-60
2022/09/05 14:58:53;;;;;;;;;;;;;;;;;;4931871;28;19922;-63
2022/09/05 15:01:18;;;;;;;;;;;;;;;;;;4929824;28;20021;-62
2022/09/05 15:03:43;;;;;;;;;;;;;;;;;;4946710;28;19946;-62
2022/09/05 15:06:09;;;;;;;;;;;;;;;;;;4946434;28;19922;-62
2022/09/05 15:08:34;;;;;;;;;;;;;;;;;;4929818;28;19919;-62
2022/09/05 15:11:01;;;;;;;;;;;;;;;;;;4947165;28;21837;-63
2022/09/05 15:13:26;;;;;;;;;;;;;;;;;;4947438;28;20488;-61
2022/09/05 15:15:55;;;;;;;;;;;;;;;;;;4927871;28;19923;-62
2022/09/05 15:18:20;;;;;;;;;;;;;;;;;;4932119;28;19918;-61
2022/09/05 15:20:45;;;;;;;;;;;;;;;;;;4945864;28;19922;-62
2022/09/05 15:23:14;;;;;;;;;;;;;;;;;;4932457;28;19940;-62
2022/09/05 15:25:42;;;;;;;;;;;;;;;;;;4931900;28;20247;-62
2022/09/05 15:28:07;;;;;;;;;;;;;;;;;;4947097;28;19953;-61
2022/09/05 15:30:33;;;;;;;;;;;;;;;;;;4931597;28;20036;-62
2022/09/05 15:32:58;;;;;;;;;;;;;;;;;;4946230;28;19973;-65
2022/09/05 15:35:23;;;;;;;;;;;;;;;;;;4930570;28;19918;-62
2022/09/05 15:37:49;;;;;;;;;;;;;;;;;;4945556;28;19958;-62
2022/09/05 15:40:15;;;;;;;;;;;;;;;;;;4931860;28;19938;-63
2022/09/05 15:42:44;;;;;;;;;;;;;;;;;;4930902;28;19918;-62
2022/09/05 15:45:12;;;;;;;;;;;;;;;;;;4931378;28;19926;-62
2022/09/05 15:47:40;;;;;;;;;;;;;;;;;;4930952;28;19926;-61
2022/09/05 15:50:06;;;;;;;;;;;;;;;;;;4930970;28;19926;-61
2022/09/05 15:52:31;;;;;;;;;;;;;;;;;;4945854;28;19934;-61
2022/09/05 15:54:59;;;;;;;;;;;;;;;;;;4932518;28;19922;-61
2022/09/05 15:57:25;;;;;;;;;;;;;;;;;;4944329;28;19929;-59
2022/09/05 15:59:51;;;;;;;;;;;;;;;;;;4931007;28;19973;-62
2022/09/05 16:02:16;;;;;;;;;;;;;;;;;;4931893;28;19926;-63
2022/09/05 16:04:42;;;;;;;;;;;;;;;;;;4943584;28;19927;-62
2022/09/05 16:07:08;;;;;;;;;;;;;;;;;;4930549;28;21758;-63
2022/09/05 16:09:33;;;;;;;;;;;;;;;;;;4945101;28;19987;-61
2022/09/05 16:11:59;;;;;;;;;;;;;;;;;;4930103;28;19922;-62
2022/09/05 16:14:27;;;;;;;;;;;;;;;;;;4930181;28;20555;-62
2022/09/05 16:16:52;;;;;;;;;;;;;;;;;;4928642;28;19964;-62
2022/09/05 16:19:18;;;;;;;;;;;;;;;;;;4946961;28;19922;-62
2022/09/05 16:21:46;;;;;;;;;;;;;;;;;;4930167;28;19919;-62
2022/09/05 16:24:11;;;;;;;;;;;;;;;;;;4930975;28;19922;-63
2022/09/05 16:26:37;;;;;;;;;;;;;;;;;;4946845;28;19931;-61
2022/09/05 16:29:07;;;;;;;;;;;;;;;;;;4928827;28;19918;-62
2022/09/05 16:31:33;;;;;;;;;;;;;;;;;;4929379;28;20635;-61
2022/09/05 16:34:01;;;;;;;;;;;;;;;;;;4928577;28;20026;-64
2022/09/05 16:36:28;;;;;;;;;;;;;;;;;;4930460;28;19918;-61
2022/09/05 16:38:54;;;;;;;;;;;;;;;;;;4945835;28;19923;-64
2022/09/05 16:41:19;;;;;;;;;;;;;;;;;;4943628;28;19926;-60
2022/09/05 16:43:47;;;;;;;;;;;;;;;;;;4929307;28;19961;-62
2022/09/05 16:46:13;;;;;;;;;;;;;;;;;;4929813;28;20417;-61
2022/09/05 16:48:40;;;;;;;;;;;;;;;;;;4930186;28;19930;-61